Alleghany, CA

4:51 PM PDT on September 01, 2014 (GMT -0700)
Reno - Stead | Change Station
CLOSE
Current Station
Airport
Location: Reno - Stead,
Elevation: 5049 ft
Nearby Weather Stations

Elev 5049 ft 39.67 °N, 119.88 °W | Updated 16 minutes ago

Clear
Clear
84 °F
Feels Like 84 °F
N
0
Wind Variable Wind from North

Today
High -- | Low -- °F
--% Chance of Precip.
Yesterday
High -- | Low -- °F
Precip. -- in
6:31 AM 7:33 PM
Waxing Crescent, 45% visible
Pressure 30.02 in
Visibility 10.0 miles
Clouds Clear
Dew Point 32 °F
Humidity 15%
Rainfall 0.00 in
Snow Depth Not available.
UV 4 out of 12
Pollen 8.10 out of 12
Air Quality Not available.
Flu Activity Not available.
METAR KRTS 012335Z AUTO 00000KT 10SM CLR 29/00 A3002 RMK AO2

More Conditions Fewer Conditions

Pressure 30.02 in
Visibility 10.0 miles
Clouds Clear
Dew Point 32 °F
Humidity 15%
Rainfall 0.00 in
Snow Depth Not available.
UV 4 out of 12
Pollen 8.10 out of 12
Air Quality Not available.
Flu Activity Not available.
METAR KRTS 012335Z AUTO 00000KT 10SM CLR 29/00 A3002 RMK AO2

More Conditions Fewer Conditions

10-Day Weather Forecast

Almanac

Astronomy

Sep. 01, 2014 Rise Set
Actual Time 6:31 AM PDT 7:33 PM PDT
Civil Twilight 6:03 AM PDT 8:00 PM PDT
Nautical Twilight 5:30 AM PDT 8:33 PM PDT
Astronomical Twilight 4:56 AM PDT 9:07 PM PDT
Moon 1:20 PM PDT 11:40 PM PDT
Length of Visible Light 13h 57m
Length of Day
13h 02m
Tomorrow will be 2m 30s shorter.
Waxing Crescent, 45% of the Moon is Illuminated
Today
Waxing Crescent
Sep 2
First Quarter
Sep 8
Full
Sep 15
Last Quarter
Sep 24
New

Today's Extremes

State Highs State Lows

Community

WunderPhotos

Upload Photos

1,749,440 photos uploaded!

Nearby

Air Quality

  Air Quality AQ Index Pollutant
Yesterday Good
OZONE
Monday Moderate
OZONE
Tuesday Moderate
OZONE
Wednesday Moderate
OZONE

Snow Depth

Station Depth Elevation
CSS Lab 0 in 6900 ft
Monitor Pass 0 in 8350 ft
Leavitt Meadows 0 in 7200 ft
Adin Mountain 0 in 6200 ft

Earthquake Activity

City Distance Mag. Time & Date
Yountville, California 123 miles 2.6 1:15 PM PDT
2014-09-01
Green Valley, California 120 miles 2.5 6:37 AM PDT
2014-08-31
Napa, California 127 miles 3.2 1:56 AM PDT
2014-08-31
Minimum magnitude displayed is 2.5.

Coastal Water Temperatures

Place Temperature
No Stations Reporting

Nearby Weather Stations